Time;durP1;ratioP1;P1;durP2;ratioP2;P2;SDS_P1;SDS_P2;PMS_P1;PMS_P2;Temp;Humidity;BMP_temperature;BMP_pressure;BME280_temperature;BME280_humidity;BME280_pressure;Samples;Min_cycle;Max_cycle;Signal;HPM_P1;HPM_P2
2022/07/06 00:00:33;;;;;;;2.90;0.90;;;15.30;99.90;;;;;;4882725;29;20136;-72
2022/07/06 00:02:59;;;;;;;1.60;0.65;;;15.20;99.90;;;;;;4882799;29;20060;-72
2022/07/06 00:05:25;;;;;;;2.00;0.80;;;15.20;99.90;;;;;;4882778;29;20088;-72
2022/07/06 00:07:51;;;;;;;2.45;0.57;;;15.20;99.90;;;;;;4881528;29;20045;-72
2022/07/06 00:10:16;;;;;;;1.85;0.68;;;15.10;99.90;;;;;;4882624;29;20056;-72
2022/07/06 00:12:42;;;;;;;2.08;0.90;;;15.10;99.90;;;;;;4883075;29;20060;-71
2022/07/06 00:15:08;;;;;;;3.85;0.68;;;15.00;99.90;;;;;;4882510;29;20045;-71
2022/07/06 00:17:34;;;;;;;3.58;0.68;;;15.00;99.90;;;;;;4881551;29;20057;-72
2022/07/06 00:20:00;;;;;;;4.05;0.80;;;15.00;99.90;;;;;;4882440;29;20131;-72
2022/07/06 00:22:25;;;;;;;1.35;0.55;;;15.10;99.90;;;;;;4882391;29;20442;-72
2022/07/06 00:24:51;;;;;;;3.63;0.70;;;15.00;99.90;;;;;;4881634;29;20045;-73
2022/07/06 00:27:17;;;;;;;2.03;0.73;;;14.90;99.90;;;;;;4882234;29;20055;-72
2022/07/06 00:29:43;;;;;;;5.20;0.77;;;15.00;99.90;;;;;;4882267;29;20052;-72
2022/07/06 00:32:12;;;;;;;1.95;0.60;;;15.00;99.90;;;;;;4881785;29;20057;-72
2022/07/06 00:34:41;;;;;;;6.97;0.50;;;14.90;99.90;;;;;;4882251;29;20049;-72
2022/07/06 00:37:07;;;;;;;1.85;0.50;;;15.00;99.90;;;;;;4897216;29;20053;-72
2022/07/06 00:39:33;;;;;;;4.00;0.40;;;15.00;99.90;;;;;;4880918;29;20391;-72
2022/07/06 00:41:59;;;;;;;3.08;0.52;;;14.90;99.90;;;;;;4881186;29;20470;-72
2022/07/06 00:44:25;;;;;;;1.40;0.40;;;15.00;99.90;;;;;;4896527;29;20045;-72
2022/07/06 00:46:51;;;;;;;2.08;0.40;;;15.00;99.90;;;;;;4882040;29;20105;-72
2022/07/06 00:52:02;;;;;;;1.50;0.30;;;14.90;99.90;;;;;;4881792;29;20068;-71
2022/07/06 00:54:31;;;;;;;0.40;0.22;;;15.00;99.90;;;;;;4882473;29;20109;-72
2022/07/06 00:56:58;;;;;;;3.50;0.40;;;14.90;99.90;;;;;;4881739;29;20061;-72
2022/07/06 00:59:24;;;;;;;1.45;0.30;;;14.90;99.90;;;;;;4881709;29;20069;-72
2022/07/06 01:01:50;;;;;;;1.35;0.30;;;14.90;99.90;;;;;;4881657;29;20388;-72
2022/07/06 01:04:16;;;;;;;1.58;0.30;;;14.90;99.90;;;;;;4881581;29;20104;-72
2022/07/06 01:06:45;;;;;;;1.80;0.30;;;14.80;99.90;;;;;;4881577;29;20044;-72
2022/07/06 01:09:11;;;;;;;1.50;0.30;;;14.80;99.90;;;;;;4881493;29;20056;-72
2022/07/06 01:11:36;;;;;;;1.50;0.40;;;14.90;99.90;;;;;;4881475;29;20049;-72
2022/07/06 01:14:02;;;;;;;1.58;0.40;;;14.80;99.90;;;;;;4882120;29;20176;-72
2022/07/06 01:16:28;;;;;;;0.40;0.30;;;14.70;99.90;;;;;;4865072;29;20053;-72
2022/07/06 01:18:54;;;;;;;2.60;0.40;;;15.00;99.90;;;;;;4881301;29;20048;-72
2022/07/06 01:21:19;;;;;;;1.45;0.40;;;14.90;99.90;;;;;;4880367;29;20057;-72
2022/07/06 01:23:47;;;;;;;2.55;0.40;;;14.80;99.90;;;;;;4881223;29;20045;-72
2022/07/06 01:26:14;;;;;;;1.65;0.30;;;14.80;99.90;;;;;;4864831;29;20101;-73
2022/07/06 01:28:41;;;;;;;2.50;0.45;;;15.00;99.90;;;;;;4895876;29;20404;-72
2022/07/06 01:31:24;;;;;;;1.10;0.30;;;14.80;99.90;;;;;;4881483;29;20056;-72
2022/07/06 01:33:51;;;;;;;2.13;0.50;;;15.00;99.90;;;;;;4881169;29;20060;-73
2022/07/06 01:36:17;;;;;;;2.50;0.40;;;14.80;99.90;;;;;;4880971;29;20045;-73
2022/07/06 01:38:51;;;;;;;2.00;0.40;;;14.90;99.90;;;;;;4880406;29;20059;-72
2022/07/06 01:41:18;;;;;;;1.38;0.38;;;14.70;99.90;;;;;;4881073;29;20080;-73
2022/07/06 01:43:44;;;;;;;2.00;0.50;;;14.80;99.90;;;;;;4880629;29;20056;-73
2022/07/06 01:46:10;;;;;;;1.98;0.40;;;14.90;99.90;;;;;;4880865;29;20049;-72
2022/07/06 01:48:36;;;;;;;3.15;0.50;;;15.00;99.90;;;;;;4880823;29;20104;-72
2022/07/06 01:51:02;;;;;;;1.35;0.40;;;14.90;99.90;;;;;;4880747;29;20059;-72
2022/07/06 01:53:28;;;;;;;2.28;0.40;;;14.70;99.90;;;;;;4879229;29;20061;-72
2022/07/06 01:55:54;;;;;;;2.42;0.40;;;14.80;99.90;;;;;;4880984;29;20068;-72
2022/07/06 01:58:19;;;;;;;2.88;0.40;;;14.80;99.90;;;;;;4879653;29;20398;-72
2022/07/06 02:00:45;;;;;;;2.45;0.45;;;14.70;99.90;;;;;;4880601;29;20389;-72
2022/07/06 02:03:10;;;;;;;1.65;0.40;;;14.90;99.90;;;;;;4881120;29;20506;-72
2022/07/06 02:05:36;;;;;;;1.02;0.40;;;14.70;99.90;;;;;;4879565;29;20052;-72
2022/07/06 02:08:02;;;;;;;1.42;0.40;;;14.70;99.90;;;;;;4881223;29;20088;-72
2022/07/06 02:10:27;;;;;;;1.80;0.40;;;14.70;99.90;;;;;;4879559;29;20502;-71
2022/07/06 02:12:53;;;;;;;2.55;0.40;;;14.80;99.90;;;;;;4880371;29;20109;-72
2022/07/06 02:15:19;;;;;;;2.10;0.63;;;14.80;99.90;;;;;;4879925;29;20056;-72
2022/07/06 02:17:44;;;;;;;1.23;0.50;;;14.80;99.90;;;;;;4880359;29;20045;-72
2022/07/06 02:20:10;;;;;;;1.50;0.40;;;14.70;99.90;;;;;;4880800;29;20052;-72
2022/07/06 02:22:36;;;;;;;2.80;0.40;;;14.80;99.90;;;;;;4880199;29;20103;-72
2022/07/06 02:25:03;;;;;;;6.25;0.60;;;14.80;99.90;;;;;;4894623;29;20049;-72
2022/07/06 02:27:28;;;;;;;2.42;0.30;;;14.70;99.90;;;;;;4879272;29;20132;-72
2022/07/06 02:29:54;;;;;;;1.23;0.40;;;14.70;99.90;;;;;;4880397;29;20131;-72
2022/07/06 02:32:19;;;;;;;1.85;0.40;;;14.70;99.90;;;;;;4879753;29;20052;-72
2022/07/06 02:34:45;;;;;;;4.05;0.50;;;14.80;99.90;;;;;;4894375;29;20128;-72
2022/07/06 02:37:11;;;;;;;1.88;0.47;;;14.70;99.90;;;;;;4880860;29;20053;-71
2022/07/06 02:39:37;;;;;;;2.17;0.40;;;14.80;99.90;;;;;;4879975;29;20049;-72
2022/07/06 02:42:03;;;;;;;4.10;0.60;;;14.70;99.90;;;;;;4879060;29;20056;-72
2022/07/06 02:44:28;;;;;;;3.90;0.60;;;14.70;99.90;;;;;;4879011;29;20061;-72
2022/07/06 02:46:54;;;;;;;1.77;0.40;;;14.70;99.90;;;;;;4878883;29;20177;-71
2022/07/06 02:49:20;;;;;;;1.98;0.65;;;14.80;99.90;;;;;;4879285;29;20051;-71
2022/07/06 02:51:45;;;;;;;2.67;0.30;;;14.80;99.90;;;;;;4879601;29;20115;-72
2022/07/06 02:54:11;;;;;;;2.25;0.30;;;14.80;99.90;;;;;;4894504;29;20057;-72
2022/07/06 02:56:37;;;;;;;3.50;0.50;;;14.80;99.90;;;;;;4878880;29;20084;-71
2022/07/06 02:59:02;;;;;;;4.35;0.38;;;14.70;99.90;;;;;;4880078;29;20045;-72
2022/07/06 03:01:28;;;;;;;2.90;0.40;;;14.70;99.90;;;;;;4879828;29;20132;-72
2022/07/06 03:03:54;;;;;;;2.63;0.40;;;14.80;99.90;;;;;;4880047;29;20355;-72
2022/07/06 03:06:19;;;;;;;4.10;0.40;;;14.60;99.90;;;;;;4878849;29;20149;-72
2022/07/06 03:08:45;;;;;;;2.03;0.35;;;14.60;99.90;;;;;;4880095;29;20118;-72
2022/07/06 03:11:11;;;;;;;2.03;0.40;;;14.70;99.90;;;;;;4879883;29;20049;-72
2022/07/06 03:13:36;;;;;;;2.35;0.50;;;14.70;99.90;;;;;;4879782;29;20048;-73
2022/07/06 03:16:02;;;;;;;0.90;0.40;;;14.50;99.90;;;;;;4878913;29;20462;-72
2022/07/06 03:18:28;;;;;;;2.55;0.57;;;14.60;99.90;;;;;;4879734;29;20061;-72
2022/07/06 03:20:53;;;;;;;3.08;0.40;;;14.60;99.90;;;;;;4878551;29;20049;-72
2022/07/06 03:23:19;;;;;;;2.45;0.52;;;14.40;99.90;;;;;;4878855;29;20132;-71
2022/07/06 03:25:45;;;;;;;1.40;0.50;;;14.40;99.90;;;;;;4894062;29;20151;-72
2022/07/06 03:28:11;;;;;;;4.43;0.50;;;14.40;99.90;;;;;;4879561;29;20060;-72
2022/07/06 03:30:37;;;;;;;2.25;0.40;;;14.50;99.90;;;;;;4879166;29;20374;-72
2022/07/06 03:33:03;;;;;;;2.63;0.40;;;14.40;99.90;;;;;;4879596;29;20082;-72
2022/07/06 03:35:29;;;;;;;2.55;0.50;;;14.40;99.90;;;;;;4879476;29;20157;-72
2022/07/06 03:37:54;;;;;;;1.27;0.38;;;14.40;99.90;;;;;;4879527;29;20045;-73
2022/07/06 03:40:20;;;;;;;1.10;0.40;;;14.20;99.90;;;;;;4879582;29;20096;-72
2022/07/06 03:42:46;;;;;;;2.65;0.40;;;14.30;99.90;;;;;;4879559;29;20048;-72
2022/07/06 03:45:11;;;;;;;2.40;0.38;;;14.20;99.90;;;;;;4879338;29;20057;-72
2022/07/06 03:47:37;;;;;;;2.20;0.40;;;14.20;99.90;;;;;;4879334;29;20117;-72
2022/07/06 03:50:03;;;;;;;3.53;0.40;;;14.20;99.90;;;;;;4879513;29;20517;-72
2022/07/06 03:52:29;;;;;;;1.13;0.30;;;14.00;99.90;;;;;;4893625;29;20144;-72
2022/07/06 03:54:55;;;;;;;2.97;0.40;;;14.00;99.90;;;;;;4879351;29;20127;-72
2022/07/06 03:57:21;;;;;;;1.92;0.30;;;14.00;99.90;;;;;;4879308;29;20056;-72
2022/07/06 03:59:47;;;;;;;1.67;0.38;;;13.90;99.90;;;;;;4879466;29;20395;-72
2022/07/06 04:02:12;;;;;;;3.08;0.63;;;13.90;99.90;;;;;;4879421;29;20056;-72
2022/07/06 04:04:38;;;;;;;1.42;0.50;;;13.80;99.90;;;;;;4879093;29;20113;-72
2022/07/06 04:07:04;;;;;;;1.67;0.40;;;13.80;99.90;;;;;;4881801;29;20049;-72
2022/07/06 04:09:30;;;;;;;1.15;0.40;;;13.80;99.90;;;;;;4883454;29;20537;-72
2022/07/06 04:11:56;;;;;;;3.00;0.47;;;13.70;99.90;;;;;;4881741;29;20084;-72
2022/07/06 04:14:21;;;;;;;2.05;0.90;;;14.90;99.90;;;;;;4881470;29;20063;-72
2022/07/06 04:16:47;;;;;;;1.50;0.50;;;13.70;99.90;;;;;;4882456;29;20051;-73
2022/07/06 04:19:13;;;;;;;1.85;0.50;;;13.50;99.90;;;;;;4882488;29;20052;-72
2022/07/06 04:21:39;;;;;;;1.65;0.63;;;13.50;99.90;;;;;;4882416;29;20059;-72
2022/07/06 04:24:05;;;;;;;1.40;0.63;;;13.50;99.90;;;;;;4882647;29;20085;-72
2022/07/06 04:26:30;;;;;;;3.22;0.50;;;13.40;99.90;;;;;;4882389;29;20379;-72
2022/07/06 04:28:56;;;;;;;1.30;0.40;;;13.30;99.90;;;;;;4882899;29;20377;-72
2022/07/06 04:31:22;;;;;;;3.28;0.65;;;13.30;99.90;;;;;;4882389;29;20127;-73
2022/07/06 04:33:47;;;;;;;2.15;0.50;;;13.30;99.90;;;;;;4882214;29;20044;-72
2022/07/06 04:36:13;;;;;;;1.98;0.60;;;13.20;99.90;;;;;;4881561;29;20521;-72
2022/07/06 04:38:39;;;;;;;2.10;0.55;;;13.20;99.90;;;;;;4881269;29;20509;-72
2022/07/06 04:41:05;;;;;;;3.05;0.52;;;13.30;99.90;;;;;;4882837;29;20572;-72
2022/07/06 04:43:31;;;;;;;2.63;0.80;;;13.30;99.90;;;;;;4880839;29;20049;-72
2022/07/06 04:45:56;;;;;;;2.28;0.50;;;13.30;99.90;;;;;;4881973;29;20052;-72
2022/07/06 04:48:22;;;;;;;1.60;0.80;;;13.30;99.90;;;;;;4881883;29;20049;-72
2022/07/06 04:50:48;;;;;;;1.92;0.60;;;13.30;99.90;;;;;;4880852;29;20093;-72
2022/07/06 04:53:13;;;;;;;1.15;0.68;;;13.40;99.90;;;;;;4895904;29;20053;-72
2022/07/06 04:55:39;;;;;;;2.05;0.60;;;13.40;99.90;;;;;;4882375;29;20405;-72
2022/07/06 04:58:05;;;;;;;2.15;0.57;;;13.40;99.90;;;;;;4881916;29;20060;-72
2022/07/06 05:00:31;;;;;;;2.97;0.70;;;13.50;99.90;;;;;;4880694;29;20164;-72
2022/07/06 05:02:57;;;;;;;2.90;0.60;;;13.50;99.90;;;;;;4881451;29;20055;-72
2022/07/06 05:05:22;;;;;;;3.42;0.60;;;13.60;99.90;;;;;;4881611;29;20078;-72
2022/07/06 05:07:48;;;;;;;1.85;0.50;;;14.00;99.90;;;;;;4866130;29;20049;-72
2022/07/06 05:10:14;;;;;;;2.20;0.60;;;13.70;99.90;;;;;;4882188;29;20048;-73
2022/07/06 05:12:40;;;;;;;2.45;0.60;;;13.70;99.90;;;;;;4880470;29;20044;-72
2022/07/06 05:15:07;;;;;;;2.67;0.60;;;13.80;99.90;;;;;;4881481;29;20045;-72
2022/07/06 05:17:32;;;;;;;1.73;0.60;;;13.80;99.90;;;;;;4880531;29;20112;-72
2022/07/06 05:19:58;;;;;;;1.40;0.52;;;13.90;99.90;;;;;;4882025;29;20045;-72
2022/07/06 05:22:24;;;;;;;2.58;0.50;;;13.90;99.90;;;;;;4881256;29;20084;-72
2022/07/06 05:24:51;;;;;;;2.15;0.68;;;13.90;99.90;;;;;;4864909;29;20516;-72
2022/07/06 05:27:16;;;;;;;3.03;0.40;;;13.90;99.90;;;;;;4881171;29;20398;-72
2022/07/06 05:29:42;;;;;;;1.20;0.30;;;14.00;99.90;;;;;;4881337;29;20051;-72
2022/07/06 05:32:08;;;;;;;3.25;0.52;;;14.10;99.90;;;;;;4882035;29;20091;-72
2022/07/06 05:34:35;;;;;;;2.05;0.60;;;14.10;99.90;;;;;;4881034;29;20045;-71
2022/07/06 05:37:01;;;;;;;2.67;0.40;;;14.10;99.90;;;;;;4881612;29;20394;-72
2022/07/06 05:39:26;;;;;;;0.82;0.20;;;14.10;99.90;;;;;;4881077;29;20045;-71
2022/07/06 05:41:52;;;;;;;2.50;0.20;;;14.10;99.90;;;;;;4895387;29;20060;-72
2022/07/06 05:44:17;;;;;;;1.67;0.30;;;14.20;99.90;;;;;;4895379;29;20041;-72
2022/07/06 05:46:43;;;;;;;1.42;0.30;;;14.20;99.90;;;;;;4880894;29;20049;-72
2022/07/06 05:51:53;;;;;;;4.50;0.20;;;14.30;99.90;;;;;;4866745;29;20135;-71
2022/07/06 05:54:19;;;;;;;0.20;0.20;;;14.30;99.90;;;;;;4880785;29;20147;-72
2022/07/06 05:56:44;;;;;;;0.68;0.20;;;14.40;99.90;;;;;;4879538;29;20045;-72
2022/07/06 05:59:10;;;;;;;2.00;0.50;;;14.40;99.90;;;;;;4879770;29;20056;-71
2022/07/06 06:01:36;;;;;;;0.50;0.20;;;14.50;99.90;;;;;;4880712;29;20041;-72
2022/07/06 06:04:01;;;;;;;2.03;0.20;;;14.60;99.90;;;;;;4879440;29;20053;-72
2022/07/06 06:06:27;;;;;;;2.60;0.20;;;14.70;99.90;;;;;;4894980;29;20102;-72
2022/07/06 06:08:53;;;;;;;2.13;0.20;;;14.80;99.90;;;;;;4880761;29;20486;-72
2022/07/06 06:11:18;;;;;;;1.67;0.20;;;14.80;99.90;;;;;;4880491;29;20053;-72
2022/07/06 06:13:44;;;;;;;0.50;0.10;;;14.90;99.90;;;;;;4878892;29;20049;-71
2022/07/06 06:16:10;;;;;;;0.88;0.15;;;14.90;99.90;;;;;;4880373;29;20394;-71
2022/07/06 06:18:36;;;;;;;0.80;0.20;;;15.00;99.90;;;;;;4879133;29;20045;-71
2022/07/06 06:21:01;;;;;;;1.27;0.10;;;15.10;99.90;;;;;;4880229;29;20056;-72
2022/07/06 06:23:27;;;;;;;1.75;0.20;;;15.20;99.90;;;;;;4880145;29;20057;-72
2022/07/06 06:25:53;;;;;;;1.00;0.13;;;15.20;99.90;;;;;;4863918;29;20382;-71
2022/07/06 06:28:19;;;;;;;1.70;0.20;;;15.30;99.90;;;;;;4879889;29;20105;-72
2022/07/06 06:30:44;;;;;;;1.92;0.10;;;15.30;99.90;;;;;;4880019;29;20053;-73
2022/07/06 06:33:16;;;;;;;0.88;0.20;;;15.30;99.90;;;;;;4895045;29;20056;-70
2022/07/06 06:35:46;;;;;;;1.30;0.20;;;15.30;99.90;;;;;;4880445;29;20514;-72
2022/07/06 06:38:12;;;;;;;1.50;0.30;;;15.40;99.90;;;;;;4881007;29;20084;-71
2022/07/06 06:40:38;;;;;;;3.65;0.57;;;15.40;99.90;;;;;;4878954;29;20561;-72
2022/07/06 06:43:04;;;;;;;1.77;0.30;;;15.40;99.90;;;;;;4878957;29;20072;-72
2022/07/06 06:45:30;;;;;;;1.40;0.20;;;15.40;99.90;;;;;;4880093;29;20505;-72
2022/07/06 06:47:56;;;;;;;2.33;0.30;;;15.40;99.90;;;;;;4894510;29;20127;-71
2022/07/06 06:50:24;;;;;;;1.60;0.25;;;15.30;99.90;;;;;;4880768;29;20186;-71
2022/07/06 06:52:51;;;;;;;1.42;0.30;;;15.30;99.90;;;;;;4879684;29;20057;-71
2022/07/06 06:55:17;;;;;;;2.15;0.30;;;15.30;99.90;;;;;;4880489;29;20057;-71
2022/07/06 06:57:44;;;;;;;1.73;0.20;;;15.20;99.90;;;;;;4879952;29;20128;-70
2022/07/06 07:00:11;;;;;;;0.70;0.10;;;15.30;99.90;;;;;;4879686;29;20067;-71
2022/07/06 07:02:36;;;;;;;0.80;0.20;;;15.20;99.90;;;;;;4878864;29;20084;-71
2022/07/06 07:05:03;;;;;;;1.08;0.20;;;15.20;99.90;;;;;;4894995;29;20148;-71
2022/07/06 07:07:29;;;;;;;0.55;0.22;;;15.20;99.90;;;;;;4878802;29;20049;-72
2022/07/06 07:09:54;;;;;;;1.42;0.47;;;15.20;99.90;;;;;;4880549;29;20051;-71
2022/07/06 07:12:20;;;;;;;1.60;0.30;;;15.10;99.90;;;;;;4878779;29;20053;-72
2022/07/06 07:14:47;;;;;;;1.70;0.20;;;15.10;99.90;;;;;;4879744;29;20052;-72
2022/07/06 07:17:13;;;;;;;1.20;0.30;;;15.10;99.90;;;;;;4884299;29;20053;-72
2022/07/06 07:19:38;;;;;;;1.48;0.30;;;15.00;99.90;;;;;;4879515;29;20405;-73
2022/07/06 07:22:04;;;;;;;2.58;0.40;;;15.10;99.90;;;;;;4880483;29;20049;-71
2022/07/06 07:24:30;;;;;;;0.73;0.20;;;15.30;99.90;;;;;;4879382;29;20403;-72
2022/07/06 07:26:56;;;;;;;1.08;0.30;;;15.00;99.90;;;;;;4878603;29;20044;-72
2022/07/06 07:29:22;;;;;;;0.85;0.30;;;15.00;99.90;;;;;;4878802;29;20111;-73
2022/07/06 07:31:47;;;;;;;1.85;0.30;;;15.00;99.90;;;;;;4880008;29;20045;-73
2022/07/06 07:34:13;;;;;;;0.80;0.30;;;15.10;99.90;;;;;;4879631;29;20130;-73
2022/07/06 07:36:39;;;;;;;2.25;0.30;;;15.10;99.90;;;;;;4879380;29;20057;-73
2022/07/06 07:39:04;;;;;;;1.52;0.30;;;15.10;99.90;;;;;;4880200;29;20053;-73
2022/07/06 07:41:30;;;;;;;2.15;0.30;;;15.10;99.90;;;;;;4881129;29;20097;-73
2022/07/06 07:43:56;;;;;;;1.77;0.30;;;15.20;99.90;;;;;;4897657;29;20049;-73
2022/07/06 07:46:22;;;;;;;1.50;0.30;;;15.20;99.90;;;;;;4882206;29;20516;-72
2022/07/06 07:48:47;;;;;;;4.38;0.38;;;15.30;99.90;;;;;;4881943;29;20041;-73
2022/07/06 07:51:13;;;;;;;2.65;0.30;;;15.40;99.90;;;;;;4883022;29;20056;-73
2022/07/06 07:53:39;;;;;;;2.05;0.40;;;15.40;99.90;;;;;;4882927;29;20061;-74
2022/07/06 07:56:05;;;;;;;1.70;0.30;;;15.60;99.90;;;;;;4882966;29;20056;-73
2022/07/06 07:58:31;;;;;;;4.47;0.65;;;15.70;99.90;;;;;;4883431;29;20049;-74
2022/07/06 08:00:57;;;;;;;3.33;0.30;;;15.90;99.90;;;;;;4881793;29;20049;-73
2022/07/06 08:03:23;;;;;;;2.85;0.30;;;16.00;99.90;;;;;;4881688;29;20052;-72
2022/07/06 08:05:48;;;;;;;1.67;0.30;;;16.20;99.90;;;;;;4881585;29;20048;-72
2022/07/06 08:08:15;;;;;;;2.10;0.30;;;16.40;99.90;;;;;;4882264;29;20053;-71
2022/07/06 08:10:40;;;;;;;1.95;0.25;;;16.60;99.90;;;;;;4882038;29;20053;-70
2022/07/06 08:13:07;;;;;;;2.90;0.20;;;16.70;99.90;;;;;;4897094;29;20052;-73
2022/07/06 08:15:33;;;;;;;1.77;0.30;;;16.70;99.90;;;;;;4881391;29;20084;-74
2022/07/06 08:17:59;;;;;;;1.83;0.40;;;16.60;99.90;;;;;;4881565;29;20112;-74
2022/07/06 08:20:25;;;;;;;1.70;0.25;;;16.60;99.90;;;;;;4881358;29;20045;-74
2022/07/06 08:22:51;;;;;;;1.58;0.20;;;16.60;99.90;;;;;;4881477;29;20482;-73
2022/07/06 08:25:17;;;;;;;1.02;0.20;;;16.60;99.90;;;;;;4882275;29;20076;-73
2022/07/06 08:27:43;;;;;;;2.28;0.20;;;16.60;99.90;;;;;;4896881;29;20087;-73
2022/07/06 08:30:10;;;;;;;3.65;0.30;;;16.70;99.90;;;;;;4882925;29;20057;-73
2022/07/06 08:32:42;;;;;;;1.67;0.35;;;16.70;99.90;;;;;;4897078;29;20045;-74
2022/07/06 08:35:09;;;;;;;1.70;0.20;;;16.80;99.90;;;;;;4882510;29;20160;-73
2022/07/06 08:37:35;;;;;;;2.88;0.30;;;16.90;99.90;;;;;;4882304;29;20162;-73
2022/07/06 08:40:00;;;;;;;3.15;0.43;;;17.00;99.90;;;;;;4882197;29;20494;-73
2022/07/06 08:42:30;;;;;;;1.10;0.20;;;17.00;99.90;;;;;;4882122;29;20053;-74
2022/07/06 08:44:59;;;;;;;1.60;0.30;;;16.90;99.90;;;;;;4881200;29;20560;-73
2022/07/06 08:47:27;;;;;;;1.75;0.30;;;16.90;99.90;;;;;;4882103;29;20053;-76
2022/07/06 08:49:53;;;;;;;1.00;0.20;;;16.90;99.90;;;;;;4882014;29;20053;-71
2022/07/06 08:52:19;;;;;;;2.88;0.20;;;16.90;99.90;;;;;;4881444;29;20053;-72
2022/07/06 08:54:45;;;;;;;0.45;0.10;;;16.90;99.90;;;;;;4882217;29;20057;-72
2022/07/06 08:57:11;;;;;;;1.13;0.20;;;16.90;99.90;;;;;;4881895;29;20060;-72
2022/07/06 08:59:38;;;;;;;1.02;0.20;;;17.00;99.90;;;;;;4882674;29;20101;-73
2022/07/06 09:02:04;;;;;;;1.02;0.30;;;17.00;99.90;;;;;;4880601;29;20061;-69
2022/07/06 09:04:32;;;;;;;1.92;0.28;;;17.10;99.90;;;;;;4880790;29;20060;-71
2022/07/06 09:06:57;;;;;;;2.35;0.20;;;17.20;99.90;;;;;;4881709;29;20056;-72
2022/07/06 09:09:24;;;;;;;2.45;0.10;;;17.30;99.90;;;;;;4881248;29;20045;-71
2022/07/06 09:11:51;;;;;;;0.90;0.17;;;17.30;99.90;;;;;;4880729;29;20415;-72
2022/07/06 09:14:18;;;;;;;2.83;0.20;;;17.40;99.90;;;;;;4881103;29;20112;-73
2022/07/06 09:16:46;;;;;;;1.27;0.25;;;17.40;99.90;;;;;;4881038;29;20116;-72
2022/07/06 09:19:13;;;;;;;1.25;0.20;;;17.50;99.90;;;;;;4880719;29;20132;-71
2022/07/06 09:21:41;;;;;;;1.08;0.20;;;17.50;99.90;;;;;;4880857;29;20053;-73
2022/07/06 09:24:11;;;;;;;2.50;0.30;;;17.50;99.90;;;;;;4880605;29;20455;-72
2022/07/06 09:26:37;;;;;;;0.98;0.25;;;17.60;99.90;;;;;;4881117;29;20056;-77
2022/07/06 09:29:05;;;;;;;0.73;0.10;;;17.50;99.90;;;;;;4880769;29;20124;-72
2022/07/06 09:31:30;;;;;;;1.98;0.20;;;17.80;99.90;;;;;;4895284;29;20136;-72
2022/07/06 09:34:05;;;;;;;1.75;0.20;;;17.50;99.90;;;;;;4880168;29;20124;-73
2022/07/06 09:36:44;;;;;;;1.45;0.20;;;17.60;99.90;;;;;;4880673;29;20049;-73
2022/07/06 09:39:27;;;;;;;1.50;0.10;;;17.70;99.90;;;;;;4880997;29;20447;-73
2022/07/06 09:41:55;;;;;;;1.92;0.32;;;17.70;99.90;;;;;;4880377;29;20092;-72
2022/07/06 09:44:26;;;;;;;2.88;0.30;;;17.80;99.90;;;;;;4880568;29;20057;-72
2022/07/06 09:46:55;;;;;;;0.80;0.13;;;17.80;99.90;;;;;;4880606;29;20498;-72
2022/07/06 09:49:22;;;;;;;0.70;0.20;;;17.90;99.90;;;;;;4863906;29;20084;-72
2022/07/06 09:51:50;;;;;;;1.45;0.15;;;17.90;99.90;;;;;;4880093;29;20072;-71
2022/07/06 09:54:16;;;;;;;1.65;0.20;;;17.90;99.90;;;;;;4879758;29;20136;-73
2022/07/06 09:56:47;;;;;;;2.03;0.20;;;17.90;99.90;;;;;;4880185;29;20136;-71
2022/07/06 09:59:15;;;;;;;1.42;0.20;;;17.90;99.90;;;;;;4879234;29;20489;-72
2022/07/06 10:01:42;;;;;;;0.95;0.20;;;17.90;99.90;;;;;;4878863;29;20077;-73
2022/07/06 10:04:09;;;;;;;0.80;0.10;;;18.00;99.90;;;;;;4878920;29;20053;-75
2022/07/06 10:06:36;;;;;;;1.02;0.20;;;18.00;99.90;;;;;;4879961;29;20049;-72
2022/07/06 10:09:06;;;;;;;1.10;0.20;;;18.10;99.90;;;;;;4878680;29;20466;-73
2022/07/06 10:11:37;;;;;;;0.93;0.15;;;18.10;99.90;;;;;;4880282;29;20100;-72
2022/07/06 10:14:05;;;;;;;1.85;0.20;;;18.10;99.90;;;;;;4880172;29;20049;-73
2022/07/06 10:16:31;;;;;;;1.75;0.20;;;18.20;99.90;;;;;;4880396;29;20053;-72
2022/07/06 10:18:58;;;;;;;1.20;0.20;;;18.30;99.90;;;;;;4879811;29;20379;-70
2022/07/06 10:21:24;;;;;;;0.95;0.30;;;18.20;99.90;;;;;;4878896;29;20092;-76
2022/07/06 10:23:51;;;;;;;2.05;0.20;;;18.20;99.90;;;;;;4878903;29;20064;-74
2022/07/06 10:26:18;;;;;;;3.15;0.20;;;18.20;99.90;;;;;;4878598;29;20051;-71
2022/07/06 10:28:46;;;;;;;2.17;0.30;;;18.20;99.90;;;;;;4882168;29;20049;-72
2022/07/06 10:31:14;;;;;;;0.90;0.20;;;18.20;99.90;;;;;;4879191;29;20052;-72
2022/07/06 10:33:42;;;;;;;1.73;0.20;;;18.10;99.90;;;;;;4879890;29;20088;-72
2022/07/06 10:36:08;;;;;;;3.10;0.30;;;18.20;99.90;;;;;;4894012;29;20382;-72
2022/07/06 10:38:35;;;;;;;1.73;0.20;;;18.20;99.90;;;;;;4878849;29;20128;-71
2022/07/06 10:41:09;;;;;;;0.90;0.20;;;18.20;99.90;;;;;;4879411;29;20052;-71
2022/07/06 10:43:42;;;;;;;3.88;0.20;;;18.30;99.90;;;;;;4880080;29;20068;-71
2022/07/06 10:46:14;;;;;;;1.63;0.20;;;18.30;99.90;;;;;;4878712;29;20045;-72
2022/07/06 10:48:41;;;;;;;1.35;0.25;;;18.40;99.90;;;;;;4878769;29;20061;-71
2022/07/06 10:51:08;;;;;;;2.80;0.20;;;18.50;99.90;;;;;;4879654;29;20084;-73
2022/07/06 10:53:39;;;;;;;1.88;0.25;;;18.60;99.90;;;;;;4878670;29;20068;-72
2022/07/06 10:56:09;;;;;;;0.20;0.20;;;18.60;99.90;;;;;;4879174;29;20056;-72
2022/07/06 10:58:53;;;;;;;1.55;0.25;;;18.70;99.90;;;;;;4880008;29;20053;-74
2022/07/06 11:01:20;;;;;;;2.70;0.50;;;18.70;99.90;;;;;;4879167;29;20470;-73
2022/07/06 11:04:05;;;;;;;2.42;0.20;;;18.70;99.90;;;;;;4879931;29;20049;-72
2022/07/06 11:06:38;;;;;;;3.50;0.38;;;18.80;99.90;;;;;;4879072;29;20085;-72
2022/07/06 11:09:10;;;;;;;2.13;0.30;;;18.90;99.90;;;;;;4878146;29;20108;-72
2022/07/06 11:11:36;;;;;;;1.77;0.30;;;19.00;99.90;;;;;;4879224;29;20048;-72
2022/07/06 11:14:07;;;;;;;2.45;0.30;;;19.00;99.90;;;;;;4878281;29;20547;-72
2022/07/06 11:16:37;;;;;;;1.58;0.30;;;19.00;99.90;;;;;;4881204;29;20076;-73
2022/07/06 11:19:05;;;;;;;2.22;0.30;;;19.00;99.90;;;;;;4883072;29;20112;-72
2022/07/06 11:21:40;;;;;;;2.42;0.30;;;18.90;99.90;;;;;;4882604;29;20137;-71
2022/07/06 11:24:09;;;;;;;2.38;0.47;;;18.90;99.90;;;;;;4882661;29;20390;-72
2022/07/06 11:26:36;;;;;;;2.83;0.13;;;18.90;99.90;;;;;;4882994;29;20056;-73
2022/07/06 11:29:06;;;;;;;0.77;0.38;;;19.00;99.90;;;;;;4882699;29;20044;-73
2022/07/06 11:31:38;;;;;;;2.17;0.20;;;19.00;99.90;;;;;;4882781;29;20158;-72
2022/07/06 11:34:05;;;;;;;0.73;0.25;;;19.10;99.90;;;;;;4881218;29;20045;-73
2022/07/06 11:36:31;;;;;;;1.80;0.20;;;19.20;99.90;;;;;;4882525;29;20064;-73
2022/07/06 11:38:58;;;;;;;3.15;0.20;;;19.20;99.90;;;;;;4881781;29;20049;-73
2022/07/06 11:41:23;;;;;;;1.23;0.38;;;19.10;99.90;;;;;;4882575;29;20053;-73
2022/07/06 11:43:51;;;;;;;2.38;0.30;;;19.10;99.90;;;;;;4883176;29;20073;-73
2022/07/06 11:46:25;;;;;;;1.67;0.30;;;19.20;99.90;;;;;;4881482;29;20081;-72
2022/07/06 11:48:54;;;;;;;0.68;0.20;;;19.20;99.90;;;;;;4882578;29;20056;-73
2022/07/06 11:51:21;;;;;;;2.05;0.77;;;19.20;99.90;;;;;;4881024;29;20113;-74
2022/07/06 11:53:53;;;;;;;1.52;0.30;;;19.30;99.90;;;;;;4882440;29;20109;-73
2022/07/06 11:56:21;;;;;;;1.73;0.30;;;19.40;99.90;;;;;;4882431;29;20052;-73
2022/07/06 11:58:49;;;;;;;2.22;0.40;;;19.50;99.90;;;;;;4882210;29;20045;-73
2022/07/06 12:01:15;;;;;;;0.88;0.20;;;19.50;99.90;;;;;;4881966;29;20049;-74
2022/07/06 12:03:43;;;;;;;1.42;0.30;;;19.50;99.90;;;;;;4882668;29;20060;-74
2022/07/06 12:06:20;;;;;;;1.42;0.30;;;19.50;99.90;;;;;;4882263;29;20057;-75
2022/07/06 12:08:49;;;;;;;1.75;0.40;;;19.40;99.90;;;;;;4882961;29;20057;-74
2022/07/06 12:11:24;;;;;;;1.88;0.30;;;19.30;99.90;;;;;;4896793;29;20053;-73
2022/07/06 12:13:51;;;;;;;0.60;0.30;;;19.20;99.90;;;;;;4881991;29;20139;-73
2022/07/06 12:16:18;;;;;;;0.95;0.20;;;19.30;99.90;;;;;;4896721;29;20107;-73
2022/07/06 12:18:46;;;;;;;0.30;0.15;;;19.40;99.90;;;;;;4880914;29;20512;-72
2022/07/06 12:21:16;;;;;;;1.17;0.22;;;19.50;99.90;;;;;;4881696;29;20045;-73
2022/07/06 12:23:46;;;;;;;1.98;0.30;;;19.60;99.90;;;;;;4881591;29;20112;-73
2022/07/06 12:26:14;;;;;;;2.08;0.30;;;19.60;99.90;;;;;;4881084;29;20482;-73
2022/07/06 12:28:41;;;;;;;1.58;0.40;;;19.60;99.90;;;;;;4881293;29;20049;-73
2022/07/06 12:31:07;;;;;;;3.15;0.40;;;19.50;99.90;;;;;;4881730;29;20617;-73
2022/07/06 12:33:32;;;;;;;3.53;0.20;;;19.50;99.90;;;;;;4881686;29;20091;-73
2022/07/06 12:36:13;;;;;;;1.38;0.30;;;19.60;99.90;;;;;;4879940;29;20080;-73
2022/07/06 12:38:45;;;;;;;1.90;0.30;;;19.60;99.90;;;;;;4881372;29;20498;-73
2022/07/06 12:41:11;;;;;;;2.40;0.30;;;19.80;99.90;;;;;;4880922;29;20057;-73
2022/07/06 12:43:38;;;;;;;1.15;0.20;;;20.00;99.90;;;;;;4881392;29;20049;-73
2022/07/06 12:46:28;;;;;;;0.60;0.30;;;20.10;99.90;;;;;;4881178;29;20100;-73
2022/07/06 12:48:54;;;;;;;0.82;0.20;;;20.20;97.50;;;;;;4881105;29;20132;-73
2022/07/06 12:51:21;;;;;;;3.00;0.32;;;20.20;99.50;;;;;;4880987;29;20056;-74